sensor_id;sensor_type;location;lat;lon;timestamp;P1;durP1;ratioP1;P2;durP2;ratioP2
19705;SDS011;10003;52.506;4.700;2024-01-11T00:00:46;7.33;;;6.07;;
19705;SDS011;10003;52.506;4.700;2024-01-11T00:03:14;8.83;;;6.77;;
19705;SDS011;10003;52.506;4.700;2024-01-11T00:05:43;6.27;;;5.53;;
19705;SDS011;10003;52.506;4.700;2024-01-11T00:08:11;8.60;;;6.57;;
19705;SDS011;10003;52.506;4.700;2024-01-11T00:10:41;8.77;;;7.10;;
19705;SDS011;10003;52.506;4.700;2024-01-11T00:13:10;6.37;;;5.80;;
19705;SDS011;10003;52.506;4.700;2024-01-11T00:15:38;5.73;;;5.13;;
19705;SDS011;10003;52.506;4.700;2024-01-11T00:18:07;8.30;;;6.23;;
19705;SDS011;10003;52.506;4.700;2024-01-11T00:20:36;8.67;;;7.10;;
19705;SDS011;10003;52.506;4.700;2024-01-11T00:23:07;4.83;;;4.43;;
19705;SDS011;10003;52.506;4.700;2024-01-11T00:25:35;7.27;;;6.57;;
19705;SDS011;10003;52.506;4.700;2024-01-11T00:28:05;5.47;;;5.00;;
19705;SDS011;10003;52.506;4.700;2024-01-11T00:30:34;6.47;;;5.97;;
19705;SDS011;10003;52.506;4.700;2024-01-11T00:33:03;4.03;;;3.67;;
19705;SDS011;10003;52.506;4.700;2024-01-11T00:35:33;10.23;;;7.80;;
19705;SDS011;10003;52.506;4.700;2024-01-11T00:38:02;7.43;;;7.13;;
19705;SDS011;10003;52.506;4.700;2024-01-11T00:40:30;3.93;;;3.73;;
19705;SDS011;10003;52.506;4.700;2024-01-11T00:42:59;29.47;;;9.47;;
19705;SDS011;10003;52.506;4.700;2024-01-11T00:45:29;4.17;;;3.77;;
19705;SDS011;10003;52.506;4.700;2024-01-11T00:47:57;5.10;;;4.37;;
19705;SDS011;10003;52.506;4.700;2024-01-11T00:50:26;7.87;;;5.30;;
19705;SDS011;10003;52.506;4.700;2024-01-11T00:52:54;9.87;;;7.37;;
19705;SDS011;10003;52.506;4.700;2024-01-11T00:55:23;9.93;;;9.00;;
19705;SDS011;10003;52.506;4.700;2024-01-11T00:57:52;8.97;;;7.03;;
19705;SDS011;10003;52.506;4.700;2024-01-11T01:00:20;10.30;;;8.70;;
19705;SDS011;10003;52.506;4.700;2024-01-11T01:02:50;16.83;;;10.37;;
19705;SDS011;10003;52.506;4.700;2024-01-11T01:05:21;11.93;;;9.37;;
19705;SDS011;10003;52.506;4.700;2024-01-11T01:07:50;9.47;;;7.23;;
19705;SDS011;10003;52.506;4.700;2024-01-11T01:10:19;12.30;;;8.33;;
19705;SDS011;10003;52.506;4.700;2024-01-11T01:12:47;22.77;;;15.63;;
19705;SDS011;10003;52.506;4.700;2024-01-11T01:15:16;11.27;;;10.13;;
19705;SDS011;10003;52.506;4.700;2024-01-11T01:17:44;12.03;;;7.77;;
19705;SDS011;10003;52.506;4.700;2024-01-11T01:20:14;8.13;;;4.73;;
19705;SDS011;10003;52.506;4.700;2024-01-11T01:22:43;14.30;;;10.43;;
19705;SDS011;10003;52.506;4.700;2024-01-11T01:25:11;11.47;;;9.83;;
19705;SDS011;10003;52.506;4.700;2024-01-11T01:27:40;16.77;;;13.27;;
19705;SDS011;10003;52.506;4.700;2024-01-11T01:30:09;15.30;;;10.47;;
19705;SDS011;10003;52.506;4.700;2024-01-11T01:32:41;15.53;;;11.63;;
19705;SDS011;10003;52.506;4.700;2024-01-11T01:35:10;9.37;;;7.50;;
19705;SDS011;10003;52.506;4.700;2024-01-11T01:37:40;8.80;;;7.77;;
19705;SDS011;10003;52.506;4.700;2024-01-11T01:40:09;13.27;;;7.00;;
19705;SDS011;10003;52.506;4.700;2024-01-11T01:42:40;11.83;;;9.13;;
19705;SDS011;10003;52.506;4.700;2024-01-11T01:45:09;16.80;;;11.80;;
19705;SDS011;10003;52.506;4.700;2024-01-11T01:47:37;16.07;;;9.50;;
19705;SDS011;10003;52.506;4.700;2024-01-11T01:50:10;10.40;;;7.77;;
19705;SDS011;10003;52.506;4.700;2024-01-11T01:52:41;14.80;;;10.23;;
19705;SDS011;10003;52.506;4.700;2024-01-11T01:55:10;17.50;;;12.33;;
19705;SDS011;10003;52.506;4.700;2024-01-11T01:57:40;14.17;;;10.70;;
19705;SDS011;10003;52.506;4.700;2024-01-11T02:00:10;15.73;;;9.20;;
19705;SDS011;10003;52.506;4.700;2024-01-11T02:02:39;11.33;;;8.63;;
19705;SDS011;10003;52.506;4.700;2024-01-11T02:05:08;12.83;;;9.00;;
19705;SDS011;10003;52.506;4.700;2024-01-11T02:07:38;20.47;;;13.27;;
19705;SDS011;10003;52.506;4.700;2024-01-11T02:10:10;5.80;;;5.30;;
19705;SDS011;10003;52.506;4.700;2024-01-11T02:12:39;14.33;;;9.90;;
19705;SDS011;10003;52.506;4.700;2024-01-11T02:15:08;11.80;;;8.60;;
19705;SDS011;10003;52.506;4.700;2024-01-11T02:17:37;15.63;;;10.90;;
19705;SDS011;10003;52.506;4.700;2024-01-11T02:20:08;15.43;;;11.30;;
19705;SDS011;10003;52.506;4.700;2024-01-11T02:22:38;18.57;;;12.50;;
19705;SDS011;10003;52.506;4.700;2024-01-11T02:25:10;6.30;;;5.70;;
19705;SDS011;10003;52.506;4.700;2024-01-11T02:27:45;12.43;;;8.93;;
19705;SDS011;10003;52.506;4.700;2024-01-11T02:30:14;17.97;;;10.70;;
19705;SDS011;10003;52.506;4.700;2024-01-11T02:32:43;20.40;;;11.80;;
19705;SDS011;10003;52.506;4.700;2024-01-11T02:35:13;9.20;;;8.30;;
19705;SDS011;10003;52.506;4.700;2024-01-11T02:37:42;15.00;;;8.13;;
19705;SDS011;10003;52.506;4.700;2024-01-11T02:40:12;3.87;;;3.67;;
19705;SDS011;10003;52.506;4.700;2024-01-11T02:42:41;6.17;;;5.17;;
19705;SDS011;10003;52.506;4.700;2024-01-11T02:45:10;3.53;;;3.23;;
19705;SDS011;10003;52.506;4.700;2024-01-11T02:47:39;21.77;;;13.77;;
19705;SDS011;10003;52.506;4.700;2024-01-11T02:50:10;10.00;;;8.43;;
19705;SDS011;10003;52.506;4.700;2024-01-11T02:52:39;4.70;;;3.90;;
19705;SDS011;10003;52.506;4.700;2024-01-11T02:55:08;16.37;;;11.80;;
19705;SDS011;10003;52.506;4.700;2024-01-11T02:57:38;12.93;;;10.73;;
19705;SDS011;10003;52.506;4.700;2024-01-11T03:00:09;9.87;;;7.63;;
19705;SDS011;10003;52.506;4.700;2024-01-11T03:02:39;8.23;;;6.77;;
19705;SDS011;10003;52.506;4.700;2024-01-11T03:05:08;10.43;;;7.83;;
19705;SDS011;10003;52.506;4.700;2024-01-11T03:07:37;9.93;;;8.67;;
19705;SDS011;10003;52.506;4.700;2024-01-11T03:10:08;29.17;;;18.53;;
19705;SDS011;10003;52.506;4.700;2024-01-11T03:12:39;20.63;;;12.57;;
19705;SDS011;10003;52.506;4.700;2024-01-11T03:15:08;20.47;;;13.87;;
19705;SDS011;10003;52.506;4.700;2024-01-11T03:17:36;23.57;;;15.73;;
19705;SDS011;10003;52.506;4.700;2024-01-11T03:20:05;17.10;;;12.47;;
19705;SDS011;10003;52.506;4.700;2024-01-11T03:22:37;13.40;;;10.67;;
19705;SDS011;10003;52.506;4.700;2024-01-11T03:25:15;11.17;;;9.63;;
19705;SDS011;10003;52.506;4.700;2024-01-11T03:27:45;8.53;;;7.17;;
19705;SDS011;10003;52.506;4.700;2024-01-11T03:30:14;24.57;;;17.03;;
19705;SDS011;10003;52.506;4.700;2024-01-11T03:32:43;12.80;;;10.37;;
19705;SDS011;10003;52.506;4.700;2024-01-11T03:35:12;16.93;;;13.20;;
19705;SDS011;10003;52.506;4.700;2024-01-11T03:37:43;19.27;;;13.63;;
19705;SDS011;10003;52.506;4.700;2024-01-11T03:40:12;14.60;;;9.33;;
19705;SDS011;10003;52.506;4.700;2024-01-11T03:42:45;16.47;;;13.47;;
19705;SDS011;10003;52.506;4.700;2024-01-11T03:45:17;14.17;;;9.47;;
19705;SDS011;10003;52.506;4.700;2024-01-11T03:47:48;17.23;;;13.80;;
19705;SDS011;10003;52.506;4.700;2024-01-11T03:50:16;33.53;;;19.83;;
19705;SDS011;10003;52.506;4.700;2024-01-11T03:52:46;28.83;;;22.17;;
19705;SDS011;10003;52.506;4.700;2024-01-11T03:55:14;20.53;;;16.03;;
19705;SDS011;10003;52.506;4.700;2024-01-11T03:57:46;19.10;;;12.73;;
19705;SDS011;10003;52.506;4.700;2024-01-11T04:00:15;19.40;;;14.40;;
19705;SDS011;10003;52.506;4.700;2024-01-11T04:02:47;14.37;;;12.37;;
19705;SDS011;10003;52.506;4.700;2024-01-11T04:05:15;22.40;;;15.00;;
19705;SDS011;10003;52.506;4.700;2024-01-11T04:07:44;25.77;;;17.70;;
19705;SDS011;10003;52.506;4.700;2024-01-11T04:10:14;19.10;;;15.13;;
19705;SDS011;10003;52.506;4.700;2024-01-11T04:12:43;15.83;;;13.27;;
19705;SDS011;10003;52.506;4.700;2024-01-11T04:15:13;17.63;;;14.27;;
19705;SDS011;10003;52.506;4.700;2024-01-11T04:17:41;16.00;;;10.87;;
19705;SDS011;10003;52.506;4.700;2024-01-11T04:20:10;17.60;;;13.13;;
19705;SDS011;10003;52.506;4.700;2024-01-11T04:22:41;19.37;;;13.90;;
19705;SDS011;10003;52.506;4.700;2024-01-11T04:25:10;36.53;;;23.60;;
19705;SDS011;10003;52.506;4.700;2024-01-11T04:27:38;25.07;;;17.13;;
19705;SDS011;10003;52.506;4.700;2024-01-11T04:30:07;13.73;;;9.57;;
19705;SDS011;10003;52.506;4.700;2024-01-11T04:32:37;14.67;;;11.63;;
19705;SDS011;10003;52.506;4.700;2024-01-11T04:35:06;21.53;;;14.33;;
19705;SDS011;10003;52.506;4.700;2024-01-11T04:37:35;11.33;;;9.70;;
19705;SDS011;10003;52.506;4.700;2024-01-11T04:40:04;16.43;;;11.87;;
19705;SDS011;10003;52.506;4.700;2024-01-11T04:42:36;18.67;;;16.57;;
19705;SDS011;10003;52.506;4.700;2024-01-11T04:45:05;29.73;;;19.63;;
19705;SDS011;10003;52.506;4.700;2024-01-11T04:47:37;19.20;;;13.23;;
19705;SDS011;10003;52.506;4.700;2024-01-11T04:50:07;17.47;;;13.07;;
19705;SDS011;10003;52.506;4.700;2024-01-11T04:52:36;23.13;;;16.50;;
19705;SDS011;10003;52.506;4.700;2024-01-11T04:55:09;29.30;;;20.47;;
19705;SDS011;10003;52.506;4.700;2024-01-11T04:57:38;27.83;;;18.77;;
19705;SDS011;10003;52.506;4.700;2024-01-11T05:00:07;35.83;;;25.37;;
19705;SDS011;10003;52.506;4.700;2024-01-11T05:02:38;23.37;;;15.60;;
19705;SDS011;10003;52.506;4.700;2024-01-11T05:05:06;15.47;;;12.13;;
19705;SDS011;10003;52.506;4.700;2024-01-11T05:07:35;25.50;;;16.83;;
19705;SDS011;10003;52.506;4.700;2024-01-11T05:10:03;23.60;;;12.97;;
19705;SDS011;10003;52.506;4.700;2024-01-11T05:12:32;15.73;;;11.37;;
19705;SDS011;10003;52.506;4.700;2024-01-11T05:15:01;15.47;;;11.27;;
19705;SDS011;10003;52.506;4.700;2024-01-11T05:17:30;19.23;;;13.50;;
19705;SDS011;10003;52.506;4.700;2024-01-11T05:20:00;12.33;;;9.17;;
19705;SDS011;10003;52.506;4.700;2024-01-11T05:22:29;13.03;;;9.70;;
19705;SDS011;10003;52.506;4.700;2024-01-11T05:24:57;2.73;;;2.63;;
19705;SDS011;10003;52.506;4.700;2024-01-11T05:27:26;4.83;;;4.53;;
19705;SDS011;10003;52.506;4.700;2024-01-11T05:29:54;8.50;;;7.40;;
19705;SDS011;10003;52.506;4.700;2024-01-11T05:32:23;4.60;;;3.30;;
19705;SDS011;10003;52.506;4.700;2024-01-11T05:34:54;11.00;;;5.30;;
19705;SDS011;10003;52.506;4.700;2024-01-11T05:37:24;4.90;;;4.50;;
19705;SDS011;10003;52.506;4.700;2024-01-11T05:39:52;4.57;;;4.10;;
19705;SDS011;10003;52.506;4.700;2024-01-11T05:42:23;9.10;;;8.07;;
19705;SDS011;10003;52.506;4.700;2024-01-11T05:44:52;11.43;;;6.93;;
19705;SDS011;10003;52.506;4.700;2024-01-11T05:47:20;7.70;;;6.97;;
19705;SDS011;10003;52.506;4.700;2024-01-11T05:49:49;4.43;;;4.13;;
19705;SDS011;10003;52.506;4.700;2024-01-11T05:52:18;8.03;;;5.50;;
19705;SDS011;10003;52.506;4.700;2024-01-11T05:54:48;6.60;;;6.10;;
19705;SDS011;10003;52.506;4.700;2024-01-11T05:57:16;4.67;;;4.27;;
19705;SDS011;10003;52.506;4.700;2024-01-11T05:59:48;12.60;;;7.27;;
19705;SDS011;10003;52.506;4.700;2024-01-11T06:02:16;12.20;;;10.47;;
19705;SDS011;10003;52.506;4.700;2024-01-11T06:04:45;6.43;;;5.73;;
19705;SDS011;10003;52.506;4.700;2024-01-11T06:07:14;7.40;;;5.73;;
19705;SDS011;10003;52.506;4.700;2024-01-11T06:09:43;4.60;;;4.27;;
19705;SDS011;10003;52.506;4.700;2024-01-11T06:12:13;7.10;;;6.43;;
19705;SDS011;10003;52.506;4.700;2024-01-11T06:14:41;10.07;;;9.17;;
19705;SDS011;10003;52.506;4.700;2024-01-11T06:17:10;12.97;;;9.67;;
19705;SDS011;10003;52.506;4.700;2024-01-11T06:19:39;10.23;;;9.13;;
19705;SDS011;10003;52.506;4.700;2024-01-11T06:22:07;8.73;;;7.87;;
19705;SDS011;10003;52.506;4.700;2024-01-11T06:24:38;9.87;;;8.77;;
19705;SDS011;10003;52.506;4.700;2024-01-11T06:27:07;12.93;;;11.33;;
19705;SDS011;10003;52.506;4.700;2024-01-11T06:29:40;14.70;;;8.17;;
19705;SDS011;10003;52.506;4.700;2024-01-11T06:32:09;6.67;;;6.17;;
19705;SDS011;10003;52.506;4.700;2024-01-11T06:34:37;10.40;;;9.23;;
19705;SDS011;10003;52.506;4.700;2024-01-11T06:37:08;8.13;;;7.23;;
19705;SDS011;10003;52.506;4.700;2024-01-11T06:39:36;16.27;;;10.33;;
19705;SDS011;10003;52.506;4.700;2024-01-11T06:42:04;5.37;;;4.97;;
19705;SDS011;10003;52.506;4.700;2024-01-11T06:44:35;4.43;;;4.13;;
19705;SDS011;10003;52.506;4.700;2024-01-11T06:47:05;4.17;;;3.87;;
19705;SDS011;10003;52.506;4.700;2024-01-11T06:49:34;9.57;;;6.90;;
19705;SDS011;10003;52.506;4.700;2024-01-11T06:52:06;5.40;;;4.97;;
19705;SDS011;10003;52.506;4.700;2024-01-11T06:54:39;6.77;;;6.20;;
19705;SDS011;10003;52.506;4.700;2024-01-11T06:57:08;15.47;;;7.17;;
19705;SDS011;10003;52.506;4.700;2024-01-11T06:59:37;7.30;;;6.47;;
19705;SDS011;10003;52.506;4.700;2024-01-11T07:02:07;9.80;;;7.40;;
19705;SDS011;10003;52.506;4.700;2024-01-11T07:04:36;6.27;;;4.10;;
19705;SDS011;10003;52.506;4.700;2024-01-11T07:07:04;13.20;;;7.60;;
19705;SDS011;10003;52.506;4.700;2024-01-11T07:09:33;6.90;;;5.30;;
19705;SDS011;10003;52.506;4.700;2024-01-11T07:12:04;5.10;;;3.23;;
19705;SDS011;10003;52.506;4.700;2024-01-11T07:14:34;4.23;;;3.37;;
19705;SDS011;10003;52.506;4.700;2024-01-11T07:17:03;5.23;;;4.73;;
19705;SDS011;10003;52.506;4.700;2024-01-11T07:19:33;10.53;;;9.10;;
19705;SDS011;10003;52.506;4.700;2024-01-11T07:22:06;11.97;;;9.17;;
19705;SDS011;10003;52.506;4.700;2024-01-11T07:24:37;12.63;;;7.80;;
19705;SDS011;10003;52.506;4.700;2024-01-11T07:27:06;5.03;;;4.50;;
19705;SDS011;10003;52.506;4.700;2024-01-11T07:29:37;5.93;;;5.33;;
19705;SDS011;10003;52.506;4.700;2024-01-11T07:32:07;11.47;;;8.50;;
19705;SDS011;10003;52.506;4.700;2024-01-11T07:34:37;5.70;;;5.03;;
19705;SDS011;10003;52.506;4.700;2024-01-11T07:37:05;5.13;;;4.83;;
19705;SDS011;10003;52.506;4.700;2024-01-11T07:39:34;6.70;;;5.57;;
19705;SDS011;10003;52.506;4.700;2024-01-11T07:42:03;6.60;;;6.20;;
19705;SDS011;10003;52.506;4.700;2024-01-11T07:44:32;11.60;;;9.77;;
19705;SDS011;10003;52.506;4.700;2024-01-11T07:47:04;7.37;;;6.50;;
19705;SDS011;10003;52.506;4.700;2024-01-11T07:49:34;5.93;;;4.60;;
19705;SDS011;10003;52.506;4.700;2024-01-11T07:52:05;8.43;;;5.70;;
19705;SDS011;10003;52.506;4.700;2024-01-11T07:54:34;8.57;;;4.80;;
19705;SDS011;10003;52.506;4.700;2024-01-11T07:57:03;9.77;;;8.17;;
19705;SDS011;10003;52.506;4.700;2024-01-11T07:59:32;4.90;;;4.60;;
19705;SDS011;10003;52.506;4.700;2024-01-11T08:02:03;4.77;;;4.30;;
19705;SDS011;10003;52.506;4.700;2024-01-11T08:04:32;1.53;;;1.43;;
19705;SDS011;10003;52.506;4.700;2024-01-11T08:07:00;2.73;;;2.63;;
19705;SDS011;10003;52.506;4.700;2024-01-11T08:09:34;5.20;;;4.90;;
19705;SDS011;10003;52.506;4.700;2024-01-11T08:12:04;9.53;;;8.67;;
19705;SDS011;10003;52.506;4.700;2024-01-11T08:14:37;9.67;;;7.50;;
19705;SDS011;10003;52.506;4.700;2024-01-11T08:17:09;5.30;;;4.93;;
19705;SDS011;10003;52.506;4.700;2024-01-11T08:19:39;2.07;;;2.00;;
19705;SDS011;10003;52.506;4.700;2024-01-11T08:22:09;6.90;;;6.23;;
19705;SDS011;10003;52.506;4.700;2024-01-11T08:24:42;3.90;;;3.70;;
19705;SDS011;10003;52.506;4.700;2024-01-11T08:27:11;7.53;;;5.37;;
19705;SDS011;10003;52.506;4.700;2024-01-11T08:29:43;4.50;;;4.20;;
19705;SDS011;10003;52.506;4.700;2024-01-11T08:32:13;12.50;;;5.40;;
19705;SDS011;10003;52.506;4.700;2024-01-11T08:34:57;10.93;;;7.53;;
19705;SDS011;10003;52.506;4.700;2024-01-11T08:37:26;1.20;;;1.20;;
19705;SDS011;10003;52.506;4.700;2024-01-11T08:39:56;11.83;;;8.30;;
19705;SDS011;10003;52.506;4.700;2024-01-11T08:42:24;5.33;;;3.80;;
19705;SDS011;10003;52.506;4.700;2024-01-11T08:44:53;3.77;;;3.43;;
19705;SDS011;10003;52.506;4.700;2024-01-11T08:47:24;5.03;;;4.27;;
19705;SDS011;10003;52.506;4.700;2024-01-11T08:49:53;7.73;;;3.93;;
19705;SDS011;10003;52.506;4.700;2024-01-11T08:52:25;4.23;;;2.10;;
19705;SDS011;10003;52.506;4.700;2024-01-11T08:54:55;10.33;;;7.83;;
19705;SDS011;10003;52.506;4.700;2024-01-11T08:57:24;9.93;;;8.10;;
19705;SDS011;10003;52.506;4.700;2024-01-11T08:59:53;3.97;;;3.67;;
19705;SDS011;10003;52.506;4.700;2024-01-11T09:02:22;6.00;;;5.60;;
19705;SDS011;10003;52.506;4.700;2024-01-11T09:04:53;6.83;;;4.40;;
19705;SDS011;10003;52.506;4.700;2024-01-11T09:07:21;8.37;;;7.53;;
19705;SDS011;10003;52.506;4.700;2024-01-11T09:09:50;1.63;;;1.63;;
19705;SDS011;10003;52.506;4.700;2024-01-11T09:12:26;2.90;;;2.80;;
19705;SDS011;10003;52.506;4.700;2024-01-11T09:14:58;3.63;;;3.33;;
19705;SDS011;10003;52.506;4.700;2024-01-11T09:17:26;1.00;;;1.00;;
19705;SDS011;10003;52.506;4.700;2024-01-11T09:19:55;5.40;;;4.63;;
19705;SDS011;10003;52.506;4.700;2024-01-11T09:22:23;3.90;;;3.00;;
19705;SDS011;10003;52.506;4.700;2024-01-11T09:24:52;1.10;;;1.10;;
19705;SDS011;10003;52.506;4.700;2024-01-11T09:27:25;5.97;;;1.93;;
19705;SDS011;10003;52.506;4.700;2024-01-11T09:29:56;1.60;;;1.60;;
19705;SDS011;10003;52.506;4.700;2024-01-11T09:32:24;1.63;;;1.63;;
19705;SDS011;10003;52.506;4.700;2024-01-11T09:34:53;8.20;;;6.63;;
19705;SDS011;10003;52.506;4.700;2024-01-11T09:37:22;6.67;;;3.23;;
19705;SDS011;10003;52.506;4.700;2024-01-11T09:39:50;0.90;;;0.90;;
19705;SDS011;10003;52.506;4.700;2024-01-11T09:42:18;3.50;;;3.20;;
19705;SDS011;10003;52.506;4.700;2024-01-11T09:44:49;3.10;;;2.93;;
19705;SDS011;10003;52.506;4.700;2024-01-11T09:47:20;1.60;;;1.50;;
19705;SDS011;10003;52.506;4.700;2024-01-11T09:49:53;3.07;;;2.73;;
19705;SDS011;10003;52.506;4.700;2024-01-11T09:52:45;4.07;;;3.63;;
19705;SDS011;10003;52.506;4.700;2024-01-11T09:55:14;0.90;;;0.90;;
19705;SDS011;10003;52.506;4.700;2024-01-11T09:57:44;2.03;;;1.93;;
19705;SDS011;10003;52.506;4.700;2024-01-11T10:00:16;2.30;;;2.20;;
19705;SDS011;10003;52.506;4.700;2024-01-11T10:02:46;2.43;;;2.33;;
19705;SDS011;10003;52.506;4.700;2024-01-11T10:05:15;1.20;;;1.20;;
19705;SDS011;10003;52.506;4.700;2024-01-11T10:07:45;1.60;;;1.20;;
19705;SDS011;10003;52.506;4.700;2024-01-11T10:10:14;1.60;;;1.50;;
19705;SDS011;10003;52.506;4.700;2024-01-11T10:12:55;4.33;;;1.80;;
19705;SDS011;10003;52.506;4.700;2024-01-11T10:15:26;7.60;;;6.90;;
19705;SDS011;10003;52.506;4.700;2024-01-11T10:17:57;6.80;;;5.80;;
19705;SDS011;10003;52.506;4.700;2024-01-11T10:20:26;1.07;;;1.07;;
19705;SDS011;10003;52.506;4.700;2024-01-11T10:23:04;0.90;;;0.90;;
19705;SDS011;10003;52.506;4.700;2024-01-11T10:25:32;3.20;;;2.90;;
19705;SDS011;10003;52.506;4.700;2024-01-11T10:28:01;1.03;;;1.03;;
19705;SDS011;10003;52.506;4.700;2024-01-11T10:30:31;0.90;;;0.90;;
19705;SDS011;10003;52.506;4.700;2024-01-11T10:33:02;1.20;;;1.20;;
19705;SDS011;10003;52.506;4.700;2024-01-11T10:35:33;3.07;;;2.97;;
19705;SDS011;10003;52.506;4.700;2024-01-11T10:38:03;0.90;;;0.90;;
19705;SDS011;10003;52.506;4.700;2024-01-11T10:40:35;2.13;;;2.13;;
19705;SDS011;10003;52.506;4.700;2024-01-11T10:43:04;3.30;;;3.10;;
19705;SDS011;10003;52.506;4.700;2024-01-11T10:45:37;4.13;;;3.30;;
19705;SDS011;10003;52.506;4.700;2024-01-11T10:48:12;12.30;;;7.07;;
19705;SDS011;10003;52.506;4.700;2024-01-11T10:50:42;3.63;;;3.33;;
19705;SDS011;10003;52.506;4.700;2024-01-11T10:53:12;1.77;;;1.73;;
19705;SDS011;10003;52.506;4.700;2024-01-11T10:55:44;2.57;;;2.43;;
19705;SDS011;10003;52.506;4.700;2024-01-11T10:58:13;2.67;;;2.57;;
19705;SDS011;10003;52.506;4.700;2024-01-11T11:00:45;0.90;;;0.90;;
19705;SDS011;10003;52.506;4.700;2024-01-11T11:03:14;0.90;;;0.90;;
19705;SDS011;10003;52.506;4.700;2024-01-11T11:05:44;1.67;;;1.67;;
19705;SDS011;10003;52.506;4.700;2024-01-11T11:08:13;5.63;;;3.63;;
19705;SDS011;10003;52.506;4.700;2024-01-11T11:10:42;4.20;;;2.40;;
19705;SDS011;10003;52.506;4.700;2024-01-11T11:13:11;3.53;;;3.03;;
19705;SDS011;10003;52.506;4.700;2024-01-11T11:15:47;4.33;;;2.50;;
19705;SDS011;10003;52.506;4.700;2024-01-11T11:18:18;1.93;;;1.83;;
19705;SDS011;10003;52.506;4.700;2024-01-11T11:20:47;14.43;;;10.90;;
19705;SDS011;10003;52.506;4.700;2024-01-11T11:23:20;3.33;;;2.93;;
19705;SDS011;10003;52.506;4.700;2024-01-11T11:25:50;1.60;;;1.60;;
19705;SDS011;10003;52.506;4.700;2024-01-11T11:28:22;1.70;;;1.70;;
19705;SDS011;10003;52.506;4.700;2024-01-11T11:30:52;8.63;;;7.13;;
19705;SDS011;10003;52.506;4.700;2024-01-11T11:33:22;5.77;;;3.13;;
19705;SDS011;10003;52.506;4.700;2024-01-11T11:35:52;1.83;;;1.77;;
19705;SDS011;10003;52.506;4.700;2024-01-11T11:38:21;0.87;;;0.87;;
19705;SDS011;10003;52.506;4.700;2024-01-11T11:40:52;1.00;;;1.00;;
19705;SDS011;10003;52.506;4.700;2024-01-11T11:43:21;0.90;;;0.90;;
19705;SDS011;10003;52.506;4.700;2024-01-11T11:45:51;1.00;;;1.00;;
19705;SDS011;10003;52.506;4.700;2024-01-11T11:51:07;2.83;;;2.50;;
19705;SDS011;10003;52.506;4.700;2024-01-11T11:53:36;6.80;;;4.50;;
19705;SDS011;10003;52.506;4.700;2024-01-11T11:56:08;12.33;;;8.93;;
19705;SDS011;10003;52.506;4.700;2024-01-11T11:58:37;2.20;;;1.67;;
19705;SDS011;10003;52.506;4.700;2024-01-11T12:01:08;0.80;;;0.80;;
19705;SDS011;10003;52.506;4.700;2024-01-11T12:03:37;5.10;;;3.83;;
19705;SDS011;10003;52.506;4.700;2024-01-11T12:06:06;0.80;;;0.80;;
19705;SDS011;10003;52.506;4.700;2024-01-11T12:08:36;1.93;;;1.83;;
19705;SDS011;10003;52.506;4.700;2024-01-11T12:11:07;1.63;;;1.63;;
19705;SDS011;10003;52.506;4.700;2024-01-11T12:13:35;6.20;;;4.83;;
19705;SDS011;10003;52.506;4.700;2024-01-11T12:16:08;1.63;;;1.43;;
19705;SDS011;10003;52.506;4.700;2024-01-11T12:18:37;1.40;;;1.40;;
19705;SDS011;10003;52.506;4.700;2024-01-11T12:21:06;9.67;;;6.03;;
19705;SDS011;10003;52.506;4.700;2024-01-11T12:23:38;2.63;;;1.20;;
19705;SDS011;10003;52.506;4.700;2024-01-11T12:26:06;1.20;;;1.20;;
19705;SDS011;10003;52.506;4.700;2024-01-11T12:28:41;1.70;;;1.63;;
19705;SDS011;10003;52.506;4.700;2024-01-11T12:31:12;1.23;;;1.23;;
19705;SDS011;10003;52.506;4.700;2024-01-11T12:33:41;0.97;;;0.97;;
19705;SDS011;10003;52.506;4.700;2024-01-11T12:36:10;2.73;;;2.60;;
19705;SDS011;10003;52.506;4.700;2024-01-11T12:38:45;0.70;;;0.70;;
19705;SDS011;10003;52.506;4.700;2024-01-11T12:41:19;1.80;;;1.70;;
19705;SDS011;10003;52.506;4.700;2024-01-11T12:43:47;1.20;;;1.20;;
19705;SDS011;10003;52.506;4.700;2024-01-11T12:46:17;1.77;;;1.67;;
19705;SDS011;10003;52.506;4.700;2024-01-11T12:48:46;2.50;;;2.40;;
19705;SDS011;10003;52.506;4.700;2024-01-11T12:51:15;1.17;;;1.17;;
19705;SDS011;10003;52.506;4.700;2024-01-11T12:53:48;3.37;;;3.10;;
19705;SDS011;10003;52.506;4.700;2024-01-11T12:56:16;1.97;;;1.93;;
19705;SDS011;10003;52.506;4.700;2024-01-11T12:58:48;1.33;;;1.17;;
19705;SDS011;10003;52.506;4.700;2024-01-11T13:01:18;2.40;;;2.23;;
19705;SDS011;10003;52.506;4.700;2024-01-11T13:03:48;1.57;;;1.53;;
19705;SDS011;10003;52.506;4.700;2024-01-11T13:06:17;1.30;;;1.30;;
19705;SDS011;10003;52.506;4.700;2024-01-11T13:08:46;1.00;;;1.00;;
19705;SDS011;10003;52.506;4.700;2024-01-11T13:11:15;1.17;;;1.17;;
19705;SDS011;10003;52.506;4.700;2024-01-11T13:13:44;0.80;;;0.80;;
19705;SDS011;10003;52.506;4.700;2024-01-11T13:16:14;2.20;;;2.10;;
19705;SDS011;10003;52.506;4.700;2024-01-11T13:18:44;0.70;;;0.70;;
19705;SDS011;10003;52.506;4.700;2024-01-11T13:21:13;1.47;;;1.37;;
19705;SDS011;10003;52.506;4.700;2024-01-11T13:23:42;1.37;;;1.37;;
19705;SDS011;10003;52.506;4.700;2024-01-11T13:26:10;0.70;;;0.70;;
19705;SDS011;10003;52.506;4.700;2024-01-11T13:28:42;1.00;;;1.00;;
19705;SDS011;10003;52.506;4.700;2024-01-11T13:31:10;2.53;;;2.43;;
19705;SDS011;10003;52.506;4.700;2024-01-11T13:33:39;1.10;;;1.10;;
19705;SDS011;10003;52.506;4.700;2024-01-11T13:36:09;2.07;;;1.00;;
19705;SDS011;10003;52.506;4.700;2024-01-11T13:38:37;0.70;;;0.70;;
19705;SDS011;10003;52.506;4.700;2024-01-11T13:41:06;1.13;;;1.13;;
19705;SDS011;10003;52.506;4.700;2024-01-11T13:43:35;1.03;;;1.03;;
19705;SDS011;10003;52.506;4.700;2024-01-11T13:46:04;0.70;;;0.70;;
19705;SDS011;10003;52.506;4.700;2024-01-11T13:48:32;0.90;;;0.90;;
19705;SDS011;10003;52.506;4.700;2024-01-11T13:51:02;0.90;;;0.90;;
19705;SDS011;10003;52.506;4.700;2024-01-11T13:53:32;1.83;;;1.73;;
19705;SDS011;10003;52.506;4.700;2024-01-11T13:56:01;3.27;;;1.33;;
19705;SDS011;10003;52.506;4.700;2024-01-11T13:58:30;1.30;;;1.30;;
19705;SDS011;10003;52.506;4.700;2024-01-11T14:00:59;2.83;;;2.00;;
19705;SDS011;10003;52.506;4.700;2024-01-11T14:03:28;3.00;;;1.63;;
19705;SDS011;10003;52.506;4.700;2024-01-11T14:05:57;0.70;;;0.70;;
19705;SDS011;10003;52.506;4.700;2024-01-11T14:08:27;2.67;;;2.57;;
19705;SDS011;10003;52.506;4.700;2024-01-11T14:10:57;2.50;;;2.33;;
19705;SDS011;10003;52.506;4.700;2024-01-11T14:13:25;2.93;;;2.63;;
19705;SDS011;10003;52.506;4.700;2024-01-11T14:15:54;4.03;;;2.57;;
19705;SDS011;10003;52.506;4.700;2024-01-11T14:18:22;5.00;;;2.70;;
19705;SDS011;10003;52.506;4.700;2024-01-11T14:20:51;6.90;;;2.10;;
19705;SDS011;10003;52.506;4.700;2024-01-11T14:23:20;17.60;;;2.97;;
19705;SDS011;10003;52.506;4.700;2024-01-11T14:25:48;1.07;;;0.97;;
19705;SDS011;10003;52.506;4.700;2024-01-11T14:28:18;2.97;;;2.37;;
19705;SDS011;10003;52.506;4.700;2024-01-11T14:30:48;4.33;;;3.93;;
19705;SDS011;10003;52.506;4.700;2024-01-11T14:33:17;4.73;;;2.10;;
19705;SDS011;10003;52.506;4.700;2024-01-11T14:35:46;3.23;;;2.30;;
19705;SDS011;10003;52.506;4.700;2024-01-11T14:38:15;0.83;;;0.83;;
19705;SDS011;10003;52.506;4.700;2024-01-11T14:40:44;4.73;;;2.70;;
19705;SDS011;10003;52.506;4.700;2024-01-11T14:43:13;4.97;;;2.53;;
19705;SDS011;10003;52.506;4.700;2024-01-11T14:45:46;0.60;;;0.60;;
19705;SDS011;10003;52.506;4.700;2024-01-11T14:48:26;1.80;;;1.10;;
19705;SDS011;10003;52.506;4.700;2024-01-11T14:50:57;0.90;;;0.90;;
19705;SDS011;10003;52.506;4.700;2024-01-11T14:53:26;0.60;;;0.60;;
19705;SDS011;10003;52.506;4.700;2024-01-11T14:55:54;2.23;;;1.30;;
19705;SDS011;10003;52.506;4.700;2024-01-11T14:58:23;2.30;;;1.27;;